Time,TemperatureF,DewpointF,PressureIn,WindDirection,WindDirectionDegrees,WindSpeedMPH,WindSpeedGustMPH,Humidity,HourlyPrecipIn,Conditions,Clouds,dailyrainin,SoftwareType,DateUTC
2013-03-03 08:11:00,76.8,52.0,30.11,North,0,0.0,0.0,42,0.00,,,0.00,WUHU21623XXSP,2013-03-03 06:11:00,
2013-03-03 08:17:00,76.8,52.6,30.11,NNW,337,3.8,3.8,43,0.00,,,0.00,WUHU21623XXSP,2013-03-03 06:17:00,
2013-03-03 08:26:00,78.1,53.7,30.11,NW,315,1.8,3.8,43,0.00,,,0.00,WUHU21623XXSP,2013-03-03 06:26:00,
2013-03-03 08:36:00,79.5,53.8,30.11,NNW,337,2.2,2.9,41,0.00,,,0.00,WUHU21623XXSP,2013-03-03 06:36:00,
2013-03-03 08:46:00,80.6,52.6,30.10,ENE,67,2.2,3.4,38,0.00,,,0.00,WUHU21623XXSP,2013-03-03 06:46:00,
2013-03-03 08:56:00,81.3,51.7,30.10,NE,45,2.0,5.6,36,0.00,,,0.00,WUHU21623XXSP,2013-03-03 06:56:00,
2013-03-03 09:07:00,81.7,55.1,30.10,North,0,4.9,5.6,40,0.00,,,0.00,WUHU21623XXSP,2013-03-03 07:07:00,
2013-03-03 09:17:00,80.2,57.5,30.09,North,0,6.3,7.4,46,0.00,,,0.00,WUHU21623XXSP,2013-03-03 07:17:00,
2013-03-03 09:27:00,80.2,56.3,30.09,SW,225,2.0,5.1,44,0.00,,,0.00,WUHU21623XXSP,2013-03-03 07:27:00,
2013-03-03 09:37:00,79.9,58.7,30.09,NNE,22,5.4,7.6,50,0.00,,,0.00,WUHU21623XXSP,2013-03-03 07:37:00,
2013-03-03 09:47:00,78.6,62.1,30.10,NNE,22,6.0,10.1,57,0.00,,,0.00,WUHU21623XXSP,2013-03-03 07:47:00,
2013-03-03 09:57:00,79.0,61.4,30.09,ENE,67,5.8,7.2,55,0.00,,,0.00,WUHU21623XXSP,2013-03-03 07:57:00,
2013-03-03 10:07:00,78.6,61.6,30.09,NNE,22,4.5,7.4,56,0.00,,,0.00,WUHU21623XXSP,2013-03-03 08:07:00,
2013-03-03 10:17:00,79.9,59.0,30.09,ENE,67,3.1,8.9,49,0.00,,,0.00,WUHU21623XXSP,2013-03-03 08:17:00,
2013-03-03 10:27:00,80.8,60.4,30.09,NNW,337,5.4,11.2,50,0.00,,,0.00,WUHU21623XXSP,2013-03-03 08:27:00,
2013-03-03 10:37:00,81.1,60.1,30.09,NE,45,3.1,6.9,49,0.00,,,0.00,WUHU21623XXSP,2013-03-03 08:37:00,
2013-03-03 10:47:00,80.8,60.4,30.09,ENE,67,11.9,11.9,50,0.00,,,0.00,WUHU21623XXSP,2013-03-03 08:47:00,
2013-03-03 10:58:00,79.7,60.5,30.09,East,90,2.0,7.4,52,0.00,,,0.00,WUHU21623XXSP,2013-03-03 08:58:00,
2013-03-03 11:08:00,81.3,59.7,30.09,WNW,292,0.0,8.9,48,0.00,,,0.00,WUHU21623XXSP,2013-03-03 09:08:00,
2013-03-03 11:18:00,82.2,59.3,30.08,North,0,3.1,8.3,46,0.00,,,0.00,WUHU21623XXSP,2013-03-03 09:18:00,
2013-03-03 11:28:00,82.6,59.6,30.08,ENE,67,6.0,7.6,46,0.00,,,0.00,WUHU21623XXSP,2013-03-03 09:28:00,
2013-03-03 11:38:00,82.8,59.2,30.07,NE,45,3.6,4.9,45,0.00,,,0.00,WUHU21623XXSP,2013-03-03 09:38:00,
2013-03-03 11:48:00,84.0,58.5,30.07,North,0,3.1,6.3,42,0.00,,,0.00,WUHU21623XXSP,2013-03-03 09:48:00,
2013-03-03 11:58:00,83.7,56.3,30.06,NNE,22,6.7,6.7,41,0.00,,,0.00,WUHU21623XXSP,2013-03-03 09:58:00,
2013-03-03 12:08:00,84.4,58.8,30.06,North,0,3.6,3.6,42,0.00,,,0.00,WUHU21623XXSP,2013-03-03 10:08:00,
2013-03-03 12:19:00,84.7,59.8,30.06,NE,45,2.2,8.1,43,0.00,,,0.00,WUHU21623XXSP,2013-03-03 10:19:00,
2013-03-03 12:29:00,84.9,59.9,30.06,NE,45,3.4,3.4,42,0.00,,,0.00,WUHU21623XXSP,2013-03-03 10:29:00,
2013-03-03 12:39:00,84.2,60.5,30.05,NNE,22,5.4,5.8,45,0.00,,,0.00,WUHU21623XXSP,2013-03-03 10:39:00,
2013-03-03 12:49:00,83.5,62.3,30.05,North,0,2.7,3.4,49,0.00,,,0.00,WUHU21623XXSP,2013-03-03 10:49:00,
2013-03-03 12:59:00,83.8,62.1,30.04,East,90,3.1,6.7,48,0.00,,,0.00,WUHU21623XXSP,2013-03-03 10:59:00,
2013-03-03 13:09:00,84.0,60.4,30.04,NNE,22,3.8,5.6,45,0.00,,,0.00,WUHU21623XXSP,2013-03-03 11:09:00,
2013-03-03 13:20:00,84.2,57.4,30.03,NNW,337,1.1,3.8,40,0.00,,,0.00,WUHU21623XXSP,2013-03-03 11:20:00,
2013-03-03 13:30:00,84.4,56.0,30.03,SE,135,0.0,5.6,38,0.00,,,0.00,WUHU21623XXSP,2013-03-03 11:30:00,
2013-03-03 13:40:00,84.4,61.3,30.03,NE,45,2.5,7.2,46,0.00,,,0.00,WUHU21623XXSP,2013-03-03 11:40:00,
2013-03-03 13:50:00,82.2,63.8,30.03,NE,45,2.0,7.8,54,0.00,,,0.00,WUHU21623XXSP,2013-03-03 11:50:00,
2013-03-03 14:00:00,82.2,64.3,30.02,North,0,4.3,5.1,55,0.00,,,0.00,WUHU21623XXSP,2013-03-03 12:00:00,
2013-03-03 14:10:00,83.8,64.9,30.02,North,0,4.7,4.7,53,0.00,,,0.00,WUHU21623XXSP,2013-03-03 12:10:00,
2013-03-03 14:20:00,83.5,64.2,30.02,East,90,1.6,4.5,54,0.00,,,0.00,WUHU21623XXSP,2013-03-03 12:20:00,
2013-03-03 14:30:00,83.8,64.4,30.02,NNW,337,2.5,4.3,52,0.00,,,0.00,WUHU21623XXSP,2013-03-03 12:30:00,
2013-03-03 14:41:00,84.9,64.3,30.02,NE,45,2.2,3.4,50,0.00,,,0.00,WUHU21623XXSP,2013-03-03 12:41:00,
2013-03-03 14:51:00,85.8,64.5,30.01,ENE,67,2.2,5.1,49,0.00,,,0.00,WUHU21623XXSP,2013-03-03 12:51:00,
2013-03-03 15:01:00,87.6,65.5,30.02,NNW,337,5.4,5.4,48,0.00,,,0.00,WUHU21623XXSP,2013-03-03 13:01:00,
2013-03-03 15:11:00,87.3,65.8,30.02,North,0,2.2,4.0,49,0.00,,,0.00,WUHU21623XXSP,2013-03-03 13:11:00,
2013-03-03 15:21:00,86.4,65.0,30.02,NNE,22,2.7,3.8,49,0.00,,,0.00,WUHU21623XXSP,2013-03-03 13:21:00,
2013-03-03 15:31:00,87.4,65.3,30.01,North,0,1.6,4.7,48,0.00,,,0.00,WUHU21623XXSP,2013-03-03 13:31:00,
2013-03-03 15:41:00,88.9,63.4,30.01,NNE,22,4.3,4.3,43,0.00,,,0.00,WUHU21623XXSP,2013-03-03 13:41:00,
2013-03-03 15:51:00,88.9,62.8,30.01,ENE,67,2.5,4.5,42,0.00,,,0.00,WUHU21623XXSP,2013-03-03 13:51:00,
2013-03-03 16:02:00,88.0,62.7,30.01,NNE,22,2.5,4.7,43,0.00,,,0.00,WUHU21623XXSP,2013-03-03 14:02:00,
2013-03-03 16:12:00,87.4,62.2,30.01,ESE,112,4.0,4.0,43,0.00,,,0.00,WUHU21623XXSP,2013-03-03 14:12:00,
2013-03-03 16:22:00,87.4,61.6,30.01,NE,45,1.8,3.8,42,0.00,,,0.00,WUHU21623XXSP,2013-03-03 14:22:00,
2013-03-03 16:32:00,85.3,59.0,30.01,NW,315,2.9,3.8,41,0.00,,,0.00,WUHU21623XXSP,2013-03-03 14:32:00,
2013-03-03 16:42:00,84.9,58.0,30.01,North,0,2.9,3.1,40,0.00,,,0.00,WUHU21623XXSP,2013-03-03 14:42:00,
2013-03-03 16:52:00,84.6,54.5,30.02,NNE,22,0.0,3.8,36,0.00,,,0.00,WUHU21623XXSP,2013-03-03 14:52:00,
2013-03-03 17:02:00,83.5,53.3,30.02,North,0,1.8,1.8,34,0.00,,,0.00,WUHU21623XXSP,2013-03-03 15:02:00,
2013-03-03 17:12:00,82.2,52.4,30.02,North,0,0.0,2.5,36,0.00,,,0.00,WUHU21623XXSP,2013-03-03 15:12:00,
2013-03-03 17:23:00,81.3,51.7,30.02,North,0,0.0,2.9,36,0.00,,,0.00,WUHU21623XXSP,2013-03-03 15:23:00,
2013-03-03 17:33:00,79.9,51.9,30.02,NNE,22,0.0,2.5,38,0.00,,,0.00,WUHU21623XXSP,2013-03-03 15:33:00,
2013-03-03 17:43:00,78.6,55.4,30.01,North,0,2.0,2.0,45,0.00,,,0.00,WUHU21623XXSP,2013-03-03 15:43:00,
2013-03-03 17:53:00,77.5,56.9,30.02,North,0,2.0,2.5,49,0.00,,,0.00,WUHU21623XXSP,2013-03-03 15:53:00,
2013-03-03 18:03:00,76.6,57.2,30.01,NE,45,0.0,2.0,51,0.00,,,0.00,WUHU21623XXSP,2013-03-03 16:03:00,
2013-03-03 18:13:00,75.9,56.6,30.02,ENE,67,1.6,2.5,51,0.00,,,0.00,WUHU21623XXSP,2013-03-03 16:13:00,
2013-03-03 18:23:00,75.4,56.7,30.02,NNE,22,0.0,2.7,52,0.00,,,0.00,WUHU21623XXSP,2013-03-03 16:23:00,